sensor_id;sensor_type;location;lat;lon;timestamp;temperature;humidity
46720;DHT22;32452;51.382;-0.002;2024-03-06T00:05:56;7.50;99.90
46720;DHT22;32452;51.382;-0.002;2024-03-06T00:08:42;7.50;99.90
46720;DHT22;32452;51.382;-0.002;2024-03-06T00:11:28;7.50;99.90
46720;DHT22;32452;51.382;-0.002;2024-03-06T00:14:13;7.50;99.90
46720;DHT22;32452;51.382;-0.002;2024-03-06T00:16:59;7.50;99.90
46720;DHT22;32452;51.382;-0.002;2024-03-06T00:19:45;7.40;99.90
46720;DHT22;32452;51.382;-0.002;2024-03-06T00:22:30;7.40;99.90
46720;DHT22;32452;51.382;-0.002;2024-03-06T00:25:17;7.40;99.90
46720;DHT22;32452;51.382;-0.002;2024-03-06T00:28:02;7.40;99.90
46720;DHT22;32452;51.382;-0.002;2024-03-06T00:30:48;7.30;99.90
46720;DHT22;32452;51.382;-0.002;2024-03-06T00:33:33;7.30;99.90
46720;DHT22;32452;51.382;-0.002;2024-03-06T00:36:19;7.30;99.90
46720;DHT22;32452;51.382;-0.002;2024-03-06T00:39:04;7.30;99.90
46720;DHT22;32452;51.382;-0.002;2024-03-06T00:41:52;7.30;99.90
46720;DHT22;32452;51.382;-0.002;2024-03-06T00:44:48;7.20;99.90
46720;DHT22;32452;51.382;-0.002;2024-03-06T00:47:37;7.20;99.90
46720;DHT22;32452;51.382;-0.002;2024-03-06T00:50:29;7.20;99.90
46720;DHT22;32452;51.382;-0.002;2024-03-06T00:53:17;7.20;99.90
46720;DHT22;32452;51.382;-0.002;2024-03-06T00:56:04;7.20;99.90
46720;DHT22;32452;51.382;-0.002;2024-03-06T00:58:52;7.10;99.90
46720;DHT22;32452;51.382;-0.002;2024-03-06T01:01:37;7.10;99.90
46720;DHT22;32452;51.382;-0.002;2024-03-06T01:04:23;7.00;99.90
46720;DHT22;32452;51.382;-0.002;2024-03-06T01:07:08;7.00;99.90
46720;DHT22;32452;51.382;-0.002;2024-03-06T01:09:54;6.90;99.90
46720;DHT22;32452;51.382;-0.002;2024-03-06T01:12:39;6.90;99.90
46720;DHT22;32452;51.382;-0.002;2024-03-06T01:15:25;6.80;99.90
46720;DHT22;32452;51.382;-0.002;2024-03-06T01:18:11;6.80;99.90
46720;DHT22;32452;51.382;-0.002;2024-03-06T01:20:56;6.80;99.90
46720;DHT22;32452;51.382;-0.002;2024-03-06T01:23:42;6.70;99.90
46720;DHT22;32452;51.382;-0.002;2024-03-06T01:26:29;6.70;99.90
46720;DHT22;32452;51.382;-0.002;2024-03-06T01:29:14;6.60;99.90
46720;DHT22;32452;51.382;-0.002;2024-03-06T01:32:01;6.60;99.90
46720;DHT22;32452;51.382;-0.002;2024-03-06T01:34:47;6.60;99.90
46720;DHT22;32452;51.382;-0.002;2024-03-06T01:37:32;6.50;99.90
46720;DHT22;32452;51.382;-0.002;2024-03-06T01:40:18;6.50;99.90
46720;DHT22;32452;51.382;-0.002;2024-03-06T01:43:03;6.50;99.90
46720;DHT22;32452;51.382;-0.002;2024-03-06T01:45:50;6.40;99.90
46720;DHT22;32452;51.382;-0.002;2024-03-06T01:48:36;6.40;99.90
46720;DHT22;32452;51.382;-0.002;2024-03-06T01:51:22;6.30;99.90
46720;DHT22;32452;51.382;-0.002;2024-03-06T01:54:07;6.20;99.90
46720;DHT22;32452;51.382;-0.002;2024-03-06T01:56:54;6.20;99.90
46720;DHT22;32452;51.382;-0.002;2024-03-06T01:59:42;6.10;99.90
46720;DHT22;32452;51.382;-0.002;2024-03-06T02:02:27;6.00;99.90
46720;DHT22;32452;51.382;-0.002;2024-03-06T02:05:13;6.00;99.90
46720;DHT22;32452;51.382;-0.002;2024-03-06T02:07:59;6.00;99.90
46720;DHT22;32452;51.382;-0.002;2024-03-06T02:10:45;5.90;99.90
46720;DHT22;32452;51.382;-0.002;2024-03-06T02:13:31;5.90;99.90
46720;DHT22;32452;51.382;-0.002;2024-03-06T02:16:17;5.90;99.90
46720;DHT22;32452;51.382;-0.002;2024-03-06T02:19:03;5.90;99.90
46720;DHT22;32452;51.382;-0.002;2024-03-06T02:21:48;5.90;99.90
46720;DHT22;32452;51.382;-0.002;2024-03-06T02:24:35;5.90;99.90
46720;DHT22;32452;51.382;-0.002;2024-03-06T02:27:20;5.90;99.90
46720;DHT22;32452;51.382;-0.002;2024-03-06T02:30:06;5.90;99.90
46720;DHT22;32452;51.382;-0.002;2024-03-06T02:32:52;5.90;99.90
46720;DHT22;32452;51.382;-0.002;2024-03-06T02:35:38;5.80;99.90
46720;DHT22;32452;51.382;-0.002;2024-03-06T02:38:25;5.80;99.90
46720;DHT22;32452;51.382;-0.002;2024-03-06T02:41:11;5.80;99.90
46720;DHT22;32452;51.382;-0.002;2024-03-06T02:43:56;5.80;99.90
46720;DHT22;32452;51.382;-0.002;2024-03-06T02:46:49;5.80;99.90
46720;DHT22;32452;51.382;-0.002;2024-03-06T02:49:34;5.80;99.90
46720;DHT22;32452;51.382;-0.002;2024-03-06T02:52:20;5.80;99.90
46720;DHT22;32452;51.382;-0.002;2024-03-06T02:55:06;5.80;99.90
46720;DHT22;32452;51.382;-0.002;2024-03-06T02:57:51;5.80;99.90
46720;DHT22;32452;51.382;-0.002;2024-03-06T03:00:39;5.80;99.90
46720;DHT22;32452;51.382;-0.002;2024-03-06T03:03:25;5.80;99.90
46720;DHT22;32452;51.382;-0.002;2024-03-06T03:06:11;5.80;99.90
46720;DHT22;32452;51.382;-0.002;2024-03-06T03:08:57;5.80;99.90
46720;DHT22;32452;51.382;-0.002;2024-03-06T03:11:43;5.80;99.90
46720;DHT22;32452;51.382;-0.002;2024-03-06T03:14:31;5.80;99.90
46720;DHT22;32452;51.382;-0.002;2024-03-06T03:17:18;5.70;99.90
46720;DHT22;32452;51.382;-0.002;2024-03-06T03:20:05;5.70;99.90
46720;DHT22;32452;51.382;-0.002;2024-03-06T03:22:56;5.70;99.90
46720;DHT22;32452;51.382;-0.002;2024-03-06T03:25:43;5.70;99.90
46720;DHT22;32452;51.382;-0.002;2024-03-06T03:28:29;5.70;99.90
46720;DHT22;32452;51.382;-0.002;2024-03-06T03:31:14;5.70;99.90
46720;DHT22;32452;51.382;-0.002;2024-03-06T03:34:00;5.70;99.90
46720;DHT22;32452;51.382;-0.002;2024-03-06T03:36:45;5.80;99.90
46720;DHT22;32452;51.382;-0.002;2024-03-06T03:39:31;5.80;99.90
46720;DHT22;32452;51.382;-0.002;2024-03-06T03:42:16;5.80;99.90
46720;DHT22;32452;51.382;-0.002;2024-03-06T03:45:02;5.80;99.90
46720;DHT22;32452;51.382;-0.002;2024-03-06T03:47:48;5.90;99.90
46720;DHT22;32452;51.382;-0.002;2024-03-06T03:50:34;5.90;99.90
46720;DHT22;32452;51.382;-0.002;2024-03-06T03:53:19;5.90;99.90
46720;DHT22;32452;51.382;-0.002;2024-03-06T03:56:05;6.00;99.90
46720;DHT22;32452;51.382;-0.002;2024-03-06T03:58:51;6.00;99.90
46720;DHT22;32452;51.382;-0.002;2024-03-06T04:01:37;6.00;99.90
46720;DHT22;32452;51.382;-0.002;2024-03-06T04:04:23;6.10;99.90
46720;DHT22;32452;51.382;-0.002;2024-03-06T04:07:09;6.10;99.90
46720;DHT22;32452;51.382;-0.002;2024-03-06T04:09:54;6.10;99.90
46720;DHT22;32452;51.382;-0.002;2024-03-06T04:12:40;6.20;99.90
46720;DHT22;32452;51.382;-0.002;2024-03-06T04:15:26;6.20;99.90
46720;DHT22;32452;51.382;-0.002;2024-03-06T04:18:12;6.20;99.90
46720;DHT22;32452;51.382;-0.002;2024-03-06T04:20:57;6.30;99.90
46720;DHT22;32452;51.382;-0.002;2024-03-06T04:23:43;6.30;99.90
46720;DHT22;32452;51.382;-0.002;2024-03-06T04:26:29;6.30;99.90
46720;DHT22;32452;51.382;-0.002;2024-03-06T04:29:15;6.30;99.90
46720;DHT22;32452;51.382;-0.002;2024-03-06T04:32:01;6.40;99.90
46720;DHT22;32452;51.382;-0.002;2024-03-06T04:34:47;6.40;99.90
46720;DHT22;32452;51.382;-0.002;2024-03-06T04:37:32;6.40;99.90
46720;DHT22;32452;51.382;-0.002;2024-03-06T04:40:18;6.40;99.90
46720;DHT22;32452;51.382;-0.002;2024-03-06T04:43:07;6.40;99.90
46720;DHT22;32452;51.382;-0.002;2024-03-06T04:45:53;6.40;99.90
46720;DHT22;32452;51.382;-0.002;2024-03-06T04:48:38;6.40;99.90
46720;DHT22;32452;51.382;-0.002;2024-03-06T04:51:24;6.40;99.90
46720;DHT22;32452;51.382;-0.002;2024-03-06T04:54:10;6.50;99.90
46720;DHT22;32452;51.382;-0.002;2024-03-06T04:56:55;6.40;99.90
46720;DHT22;32452;51.382;-0.002;2024-03-06T04:59:41;6.50;99.90
46720;DHT22;32452;51.382;-0.002;2024-03-06T05:02:26;6.50;99.90
46720;DHT22;32452;51.382;-0.002;2024-03-06T05:05:12;6.50;99.90
46720;DHT22;32452;51.382;-0.002;2024-03-06T05:08:16;6.50;99.90
46720;DHT22;32452;51.382;-0.002;2024-03-06T05:11:19;6.50;99.90
46720;DHT22;32452;51.382;-0.002;2024-03-06T05:14:22;6.50;99.90
46720;DHT22;32452;51.382;-0.002;2024-03-06T05:17:25;6.50;99.90
46720;DHT22;32452;51.382;-0.002;2024-03-06T05:20:28;6.50;99.90
46720;DHT22;32452;51.382;-0.002;2024-03-06T05:23:33;6.50;99.90
46720;DHT22;32452;51.382;-0.002;2024-03-06T05:26:37;6.50;99.90
46720;DHT22;32452;51.382;-0.002;2024-03-06T05:29:40;6.50;99.90
46720;DHT22;32452;51.382;-0.002;2024-03-06T05:32:43;6.50;99.90
46720;DHT22;32452;51.382;-0.002;2024-03-06T05:35:46;6.50;99.90
46720;DHT22;32452;51.382;-0.002;2024-03-06T05:38:49;6.50;99.90
46720;DHT22;32452;51.382;-0.002;2024-03-06T05:42:02;6.50;99.90
46720;DHT22;32452;51.382;-0.002;2024-03-06T05:45:06;6.50;99.90
46720;DHT22;32452;51.382;-0.002;2024-03-06T05:48:13;6.60;99.90
46720;DHT22;32452;51.382;-0.002;2024-03-06T05:51:18;6.60;99.90
46720;DHT22;32452;51.382;-0.002;2024-03-06T05:54:21;6.60;99.90
46720;DHT22;32452;51.382;-0.002;2024-03-06T05:57:24;6.60;99.90
46720;DHT22;32452;51.382;-0.002;2024-03-06T06:00:27;6.60;99.90
46720;DHT22;32452;51.382;-0.002;2024-03-06T06:03:12;6.60;99.90
46720;DHT22;32452;51.382;-0.002;2024-03-06T06:05:58;6.60;99.90
46720;DHT22;32452;51.382;-0.002;2024-03-06T06:08:44;6.60;99.90
46720;DHT22;32452;51.382;-0.002;2024-03-06T06:11:30;6.60;99.90
46720;DHT22;32452;51.382;-0.002;2024-03-06T06:14:16;6.60;99.90
46720;DHT22;32452;51.382;-0.002;2024-03-06T06:17:02;6.60;99.90
46720;DHT22;32452;51.382;-0.002;2024-03-06T06:19:48;6.60;99.90
46720;DHT22;32452;51.382;-0.002;2024-03-06T06:22:34;6.60;99.90
46720;DHT22;32452;51.382;-0.002;2024-03-06T06:25:19;6.60;99.90
46720;DHT22;32452;51.382;-0.002;2024-03-06T06:28:05;6.70;99.90
46720;DHT22;32452;51.382;-0.002;2024-03-06T06:30:51;6.70;99.90
46720;DHT22;32452;51.382;-0.002;2024-03-06T06:33:37;6.70;99.90
46720;DHT22;32452;51.382;-0.002;2024-03-06T06:36:23;6.70;99.90
46720;DHT22;32452;51.382;-0.002;2024-03-06T06:39:09;6.60;99.90
46720;DHT22;32452;51.382;-0.002;2024-03-06T06:41:55;6.70;99.90
46720;DHT22;32452;51.382;-0.002;2024-03-06T06:44:41;6.70;99.90
46720;DHT22;32452;51.382;-0.002;2024-03-06T06:47:27;6.70;99.90
46720;DHT22;32452;51.382;-0.002;2024-03-06T06:50:13;6.70;99.90
46720;DHT22;32452;51.382;-0.002;2024-03-06T06:52:59;6.70;99.90
46720;DHT22;32452;51.382;-0.002;2024-03-06T06:55:45;6.70;99.90
46720;DHT22;32452;51.382;-0.002;2024-03-06T06:58:31;6.70;99.90
46720;DHT22;32452;51.382;-0.002;2024-03-06T07:01:17;6.80;99.90
46720;DHT22;32452;51.382;-0.002;2024-03-06T07:04:02;6.80;99.90
46720;DHT22;32452;51.382;-0.002;2024-03-06T07:06:48;6.80;99.90
46720;DHT22;32452;51.382;-0.002;2024-03-06T07:09:34;6.80;99.90
46720;DHT22;32452;51.382;-0.002;2024-03-06T07:12:20;6.90;99.90
46720;DHT22;32452;51.382;-0.002;2024-03-06T07:15:05;6.90;99.90
46720;DHT22;32452;51.382;-0.002;2024-03-06T07:17:52;7.00;99.90
46720;DHT22;32452;51.382;-0.002;2024-03-06T07:20:40;7.00;99.90
46720;DHT22;32452;51.382;-0.002;2024-03-06T07:23:26;7.00;99.90
46720;DHT22;32452;51.382;-0.002;2024-03-06T07:26:12;7.10;99.90
46720;DHT22;32452;51.382;-0.002;2024-03-06T07:28:58;7.10;99.90
46720;DHT22;32452;51.382;-0.002;2024-03-06T07:31:44;7.20;99.90
46720;DHT22;32452;51.382;-0.002;2024-03-06T07:34:29;7.20;99.90
46720;DHT22;32452;51.382;-0.002;2024-03-06T07:37:15;7.20;99.90
46720;DHT22;32452;51.382;-0.002;2024-03-06T07:40:01;7.30;99.90
46720;DHT22;32452;51.382;-0.002;2024-03-06T07:42:46;7.50;99.90
46720;DHT22;32452;51.382;-0.002;2024-03-06T07:45:32;7.70;99.90
46720;DHT22;32452;51.382;-0.002;2024-03-06T07:48:18;7.90;99.90
46720;DHT22;32452;51.382;-0.002;2024-03-06T07:51:04;8.20;99.90
46720;DHT22;32452;51.382;-0.002;2024-03-06T07:53:50;8.40;99.90
46720;DHT22;32452;51.382;-0.002;2024-03-06T07:56:36;8.70;99.90
46720;DHT22;32452;51.382;-0.002;2024-03-06T07:59:22;8.90;99.90
46720;DHT22;32452;51.382;-0.002;2024-03-06T08:02:07;9.10;99.90
46720;DHT22;32452;51.382;-0.002;2024-03-06T08:04:53;9.40;99.90
46720;DHT22;32452;51.382;-0.002;2024-03-06T08:07:39;9.60;99.90
46720;DHT22;32452;51.382;-0.002;2024-03-06T08:10:27;9.80;99.90
46720;DHT22;32452;51.382;-0.002;2024-03-06T08:13:13;9.80;99.90
46720;DHT22;32452;51.382;-0.002;2024-03-06T08:15:59;9.70;99.90
46720;DHT22;32452;51.382;-0.002;2024-03-06T08:18:45;9.50;99.90
46720;DHT22;32452;51.382;-0.002;2024-03-06T08:21:30;9.20;99.90
46720;DHT22;32452;51.382;-0.002;2024-03-06T08:24:16;9.00;99.90
46720;DHT22;32452;51.382;-0.002;2024-03-06T08:27:02;8.90;99.90
46720;DHT22;32452;51.382;-0.002;2024-03-06T08:29:49;8.70;99.90
46720;DHT22;32452;51.382;-0.002;2024-03-06T08:32:38;8.50;99.90
46720;DHT22;32452;51.382;-0.002;2024-03-06T08:35:24;8.30;99.90
46720;DHT22;32452;51.382;-0.002;2024-03-06T08:38:10;8.30;99.90
46720;DHT22;32452;51.382;-0.002;2024-03-06T08:40:55;8.20;99.90
46720;DHT22;32452;51.382;-0.002;2024-03-06T08:43:41;8.20;99.90
46720;DHT22;32452;51.382;-0.002;2024-03-06T08:46:26;8.00;99.90
46720;DHT22;32452;51.382;-0.002;2024-03-06T08:49:12;8.00;99.90
46720;DHT22;32452;51.382;-0.002;2024-03-06T08:51:58;8.00;99.90
46720;DHT22;32452;51.382;-0.002;2024-03-06T08:54:46;8.00;99.90
46720;DHT22;32452;51.382;-0.002;2024-03-06T08:57:39;8.00;99.90
46720;DHT22;32452;51.382;-0.002;2024-03-06T09:00:29;8.00;99.90
46720;DHT22;32452;51.382;-0.002;2024-03-06T09:03:20;7.90;99.90
46720;DHT22;32452;51.382;-0.002;2024-03-06T09:06:11;7.90;99.90
46720;DHT22;32452;51.382;-0.002;2024-03-06T09:09:03;8.00;99.90
46720;DHT22;32452;51.382;-0.002;2024-03-06T09:11:54;8.10;99.90
46720;DHT22;32452;51.382;-0.002;2024-03-06T09:14:42;8.10;99.90
46720;DHT22;32452;51.382;-0.002;2024-03-06T09:17:31;8.10;99.90
46720;DHT22;32452;51.382;-0.002;2024-03-06T09:20:19;8.10;99.90
46720;DHT22;32452;51.382;-0.002;2024-03-06T09:23:16;8.20;99.90
46720;DHT22;32452;51.382;-0.002;2024-03-06T09:26:21;8.30;99.90
46720;DHT22;32452;51.382;-0.002;2024-03-06T09:29:12;8.50;99.90
46720;DHT22;32452;51.382;-0.002;2024-03-06T09:32:57;8.60;99.90
46720;DHT22;32452;51.382;-0.002;2024-03-06T09:36:10;8.70;99.90
46720;DHT22;32452;51.382;-0.002;2024-03-06T09:39:04;8.90;99.90
46720;DHT22;32452;51.382;-0.002;2024-03-06T09:41:57;9.10;99.90
46720;DHT22;32452;51.382;-0.002;2024-03-06T09:44:44;9.30;99.90
46720;DHT22;32452;51.382;-0.002;2024-03-06T09:47:37;9.40;99.90
46720;DHT22;32452;51.382;-0.002;2024-03-06T09:50:36;9.60;99.90
46720;DHT22;32452;51.382;-0.002;2024-03-06T09:53:29;9.80;99.90
46720;DHT22;32452;51.382;-0.002;2024-03-06T09:56:16;9.90;99.90
46720;DHT22;32452;51.382;-0.002;2024-03-06T09:59:13;10.10;99.90
46720;DHT22;32452;51.382;-0.002;2024-03-06T10:02:01;10.30;99.90
46720;DHT22;32452;51.382;-0.002;2024-03-06T10:04:48;10.40;99.90
46720;DHT22;32452;51.382;-0.002;2024-03-06T10:07:36;10.60;99.90
46720;DHT22;32452;51.382;-0.002;2024-03-06T10:10:25;10.70;99.90
46720;DHT22;32452;51.382;-0.002;2024-03-06T10:13:34;10.70;99.90
46720;DHT22;32452;51.382;-0.002;2024-03-06T10:16:22;10.90;99.90
46720;DHT22;32452;51.382;-0.002;2024-03-06T10:19:16;11.50;99.90
46720;DHT22;32452;51.382;-0.002;2024-03-06T10:22:08;11.90;99.90
46720;DHT22;32452;51.382;-0.002;2024-03-06T10:25:02;12.00;99.90
46720;DHT22;32452;51.382;-0.002;2024-03-06T10:28:07;12.40;99.90
46720;DHT22;32452;51.382;-0.002;2024-03-06T10:31:05;13.00;99.90
46720;DHT22;32452;51.382;-0.002;2024-03-06T10:33:53;13.40;99.90
46720;DHT22;32452;51.382;-0.002;2024-03-06T10:36:39;13.70;99.90
46720;DHT22;32452;51.382;-0.002;2024-03-06T10:39:25;14.00;99.90
46720;DHT22;32452;51.382;-0.002;2024-03-06T10:42:13;13.90;99.90
46720;DHT22;32452;51.382;-0.002;2024-03-06T10:44:59;13.80;99.90
46720;DHT22;32452;51.382;-0.002;2024-03-06T10:47:46;14.10;99.90
46720;DHT22;32452;51.382;-0.002;2024-03-06T10:50:33;14.50;99.90
46720;DHT22;32452;51.382;-0.002;2024-03-06T10:53:26;15.20;99.90
46720;DHT22;32452;51.382;-0.002;2024-03-06T10:56:17;16.10;99.90
46720;DHT22;32452;51.382;-0.002;2024-03-06T10:59:05;17.10;99.90
46720;DHT22;32452;51.382;-0.002;2024-03-06T11:01:51;17.70;99.90
46720;DHT22;32452;51.382;-0.002;2024-03-06T11:04:37;17.80;99.50
46720;DHT22;32452;51.382;-0.002;2024-03-06T11:07:25;18.00;97.00
46720;DHT22;32452;51.382;-0.002;2024-03-06T11:10:13;17.60;95.00
46720;DHT22;32452;51.382;-0.002;2024-03-06T11:13:02;17.00;94.30
46720;DHT22;32452;51.382;-0.002;2024-03-06T11:15:50;16.40;94.10
46720;DHT22;32452;51.382;-0.002;2024-03-06T11:24:17;14.60;94.70
46720;DHT22;32452;51.382;-0.002;2024-03-06T11:27:05;14.30;95.50
46720;DHT22;32452;51.382;-0.002;2024-03-06T11:30:09;14.20;95.70
46720;DHT22;32452;51.382;-0.002;2024-03-06T11:33:00;14.00;95.30
46720;DHT22;32452;51.382;-0.002;2024-03-06T11:36:14;13.80;95.80
46720;DHT22;32452;51.382;-0.002;2024-03-06T11:39:08;13.90;95.80
46720;DHT22;32452;51.382;-0.002;2024-03-06T11:41:53;13.90;95.80
46720;DHT22;32452;51.382;-0.002;2024-03-06T11:44:52;13.80;95.70
46720;DHT22;32452;51.382;-0.002;2024-03-06T11:50:43;13.60;95.20
46720;DHT22;32452;51.382;-0.002;2024-03-06T11:53:30;13.50;95.60
46720;DHT22;32452;51.382;-0.002;2024-03-06T11:56:19;14.00;96.40
46720;DHT22;32452;51.382;-0.002;2024-03-06T11:59:05;14.80;96.60
46720;DHT22;32452;51.382;-0.002;2024-03-06T12:01:53;15.40;96.10
46720;DHT22;32452;51.382;-0.002;2024-03-06T12:04:40;16.30;95.20
46720;DHT22;32452;51.382;-0.002;2024-03-06T12:07:26;16.80;93.30
46720;DHT22;32452;51.382;-0.002;2024-03-06T12:10:13;16.60;91.30
46720;DHT22;32452;51.382;-0.002;2024-03-06T12:12:58;16.60;90.70
46720;DHT22;32452;51.382;-0.002;2024-03-06T12:15:44;16.90;90.40
46720;DHT22;32452;51.382;-0.002;2024-03-06T12:18:33;17.00;89.40
46720;DHT22;32452;51.382;-0.002;2024-03-06T12:21:19;17.00;89.70
46720;DHT22;32452;51.382;-0.002;2024-03-06T12:24:05;17.00;88.60
46720;DHT22;32452;51.382;-0.002;2024-03-06T12:27:00;16.90;87.70
46720;DHT22;32452;51.382;-0.002;2024-03-06T12:29:45;16.50;85.70
46720;DHT22;32452;51.382;-0.002;2024-03-06T12:32:32;16.00;85.20
46720;DHT22;32452;51.382;-0.002;2024-03-06T12:35:24;15.50;85.30
46720;DHT22;32452;51.382;-0.002;2024-03-06T12:38:15;15.30;86.50
46720;DHT22;32452;51.382;-0.002;2024-03-06T12:41:00;15.60;87.10
46720;DHT22;32452;51.382;-0.002;2024-03-06T12:43:46;15.50;86.20
46720;DHT22;32452;51.382;-0.002;2024-03-06T12:46:32;15.20;86.10
46720;DHT22;32452;51.382;-0.002;2024-03-06T12:49:17;14.90;85.90
46720;DHT22;32452;51.382;-0.002;2024-03-06T12:52:04;14.60;86.80
46720;DHT22;32452;51.382;-0.002;2024-03-06T12:54:50;14.70;87.80
46720;DHT22;32452;51.382;-0.002;2024-03-06T12:57:36;14.90;87.10
46720;DHT22;32452;51.382;-0.002;2024-03-06T13:00:21;14.80;86.60
46720;DHT22;32452;51.382;-0.002;2024-03-06T13:03:07;14.70;86.50
46720;DHT22;32452;51.382;-0.002;2024-03-06T13:05:53;14.50;86.50
46720;DHT22;32452;51.382;-0.002;2024-03-06T13:08:39;14.30;86.40
46720;DHT22;32452;51.382;-0.002;2024-03-06T13:11:24;14.10;86.10
46720;DHT22;32452;51.382;-0.002;2024-03-06T13:14:10;13.90;86.50
46720;DHT22;32452;51.382;-0.002;2024-03-06T13:16:58;13.70;87.10
46720;DHT22;32452;51.382;-0.002;2024-03-06T13:19:45;13.50;87.60
46720;DHT22;32452;51.382;-0.002;2024-03-06T13:22:30;13.40;87.70
46720;DHT22;32452;51.382;-0.002;2024-03-06T13:25:17;13.20;88.00
46720;DHT22;32452;51.382;-0.002;2024-03-06T13:28:04;13.00;88.50
46720;DHT22;32452;51.382;-0.002;2024-03-06T13:30:50;13.00;88.70
46720;DHT22;32452;51.382;-0.002;2024-03-06T13:33:36;12.90;88.60
46720;DHT22;32452;51.382;-0.002;2024-03-06T13:36:21;12.90;88.70
46720;DHT22;32452;51.382;-0.002;2024-03-06T13:39:07;12.80;88.80
46720;DHT22;32452;51.382;-0.002;2024-03-06T13:41:53;12.80;88.90
46720;DHT22;32452;51.382;-0.002;2024-03-06T13:44:38;12.80;89.00
46720;DHT22;32452;51.382;-0.002;2024-03-06T13:47:24;12.80;88.80
46720;DHT22;32452;51.382;-0.002;2024-03-06T13:50:13;12.80;88.80
46720;DHT22;32452;51.382;-0.002;2024-03-06T13:52:59;12.70;88.60
46720;DHT22;32452;51.382;-0.002;2024-03-06T13:55:45;12.60;88.80
46720;DHT22;32452;51.382;-0.002;2024-03-06T13:58:30;12.60;89.10
46720;DHT22;32452;51.382;-0.002;2024-03-06T14:01:16;12.50;89.90
46720;DHT22;32452;51.382;-0.002;2024-03-06T14:04:02;12.50;90.20
46720;DHT22;32452;51.382;-0.002;2024-03-06T14:06:50;12.40;90.40
46720;DHT22;32452;51.382;-0.002;2024-03-06T14:09:35;12.30;90.50
46720;DHT22;32452;51.382;-0.002;2024-03-06T14:12:21;12.30;90.50
46720;DHT22;32452;51.382;-0.002;2024-03-06T14:15:07;12.30;90.60
46720;DHT22;32452;51.382;-0.002;2024-03-06T14:18:00;12.30;90.60
46720;DHT22;32452;51.382;-0.002;2024-03-06T14:20:47;12.40;90.80
46720;DHT22;32452;51.382;-0.002;2024-03-06T14:23:32;12.40;90.90
46720;DHT22;32452;51.382;-0.002;2024-03-06T14:26:18;12.40;90.90
46720;DHT22;32452;51.382;-0.002;2024-03-06T14:29:05;12.40;91.00
46720;DHT22;32452;51.382;-0.002;2024-03-06T14:31:52;12.30;91.20
46720;DHT22;32452;51.382;-0.002;2024-03-06T14:34:38;12.30;91.20
46720;DHT22;32452;51.382;-0.002;2024-03-06T14:37:24;12.30;91.10
46720;DHT22;32452;51.382;-0.002;2024-03-06T14:40:10;12.30;91.00
46720;DHT22;32452;51.382;-0.002;2024-03-06T14:42:55;12.20;90.90
46720;DHT22;32452;51.382;-0.002;2024-03-06T14:45:41;12.20;90.70
46720;DHT22;32452;51.382;-0.002;2024-03-06T14:48:29;12.10;90.80
46720;DHT22;32452;51.382;-0.002;2024-03-06T14:51:14;12.10;90.90
46720;DHT22;32452;51.382;-0.002;2024-03-06T14:54:00;12.10;90.90
46720;DHT22;32452;51.382;-0.002;2024-03-06T14:56:46;12.10;90.90
46720;DHT22;32452;51.382;-0.002;2024-03-06T14:59:31;12.00;90.90
46720;DHT22;32452;51.382;-0.002;2024-03-06T15:02:17;12.00;90.80
46720;DHT22;32452;51.382;-0.002;2024-03-06T15:05:03;12.00;90.80
46720;DHT22;32452;51.382;-0.002;2024-03-06T15:07:49;11.90;90.90
46720;DHT22;32452;51.382;-0.002;2024-03-06T15:10:35;12.00;91.00
46720;DHT22;32452;51.382;-0.002;2024-03-06T15:13:20;12.00;91.10
46720;DHT22;32452;51.382;-0.002;2024-03-06T15:16:08;12.00;91.20
46720;DHT22;32452;51.382;-0.002;2024-03-06T15:18:53;12.10;91.40
46720;DHT22;32452;51.382;-0.002;2024-03-06T15:21:42;12.10;91.50
46720;DHT22;32452;51.382;-0.002;2024-03-06T15:24:28;12.10;91.70
46720;DHT22;32452;51.382;-0.002;2024-03-06T15:27:16;12.00;91.70
46720;DHT22;32452;51.382;-0.002;2024-03-06T15:30:03;11.90;91.80
46720;DHT22;32452;51.382;-0.002;2024-03-06T15:32:48;11.80;91.80
46720;DHT22;32452;51.382;-0.002;2024-03-06T15:35:34;11.80;92.00
46720;DHT22;32452;51.382;-0.002;2024-03-06T15:38:19;11.80;92.10
46720;DHT22;32452;51.382;-0.002;2024-03-06T15:41:06;11.70;92.10
46720;DHT22;32452;51.382;-0.002;2024-03-06T15:43:54;11.70;92.10
46720;DHT22;32452;51.382;-0.002;2024-03-06T15:46:40;11.60;92.20
46720;DHT22;32452;51.382;-0.002;2024-03-06T15:49:35;11.60;92.20
46720;DHT22;32452;51.382;-0.002;2024-03-06T15:52:21;11.50;92.30
46720;DHT22;32452;51.382;-0.002;2024-03-06T15:55:08;11.50;92.40
46720;DHT22;32452;51.382;-0.002;2024-03-06T15:57:56;11.40;92.50
46720;DHT22;32452;51.382;-0.002;2024-03-06T16:00:42;11.40;92.60
46720;DHT22;32452;51.382;-0.002;2024-03-06T16:03:27;11.30;92.70
46720;DHT22;32452;51.382;-0.002;2024-03-06T16:06:13;11.30;92.80
46720;DHT22;32452;51.382;-0.002;2024-03-06T16:09:04;11.30;92.90
46720;DHT22;32452;51.382;-0.002;2024-03-06T16:11:50;11.30;93.10
46720;DHT22;32452;51.382;-0.002;2024-03-06T16:14:36;11.30;93.20
46720;DHT22;32452;51.382;-0.002;2024-03-06T16:17:21;11.30;93.40
46720;DHT22;32452;51.382;-0.002;2024-03-06T16:20:07;11.40;93.50
46720;DHT22;32452;51.382;-0.002;2024-03-06T16:22:55;11.50;93.60
46720;DHT22;32452;51.382;-0.002;2024-03-06T16:25:42;11.50;93.70
46720;DHT22;32452;51.382;-0.002;2024-03-06T16:28:28;11.50;93.80
46720;DHT22;32452;51.382;-0.002;2024-03-06T16:31:13;11.40;93.70
46720;DHT22;32452;51.382;-0.002;2024-03-06T16:33:59;11.40;93.40
46720;DHT22;32452;51.382;-0.002;2024-03-06T16:36:45;11.40;93.20
46720;DHT22;32452;51.382;-0.002;2024-03-06T16:39:31;11.40;93.20
46720;DHT22;32452;51.382;-0.002;2024-03-06T16:42:16;11.40;93.40
46720;DHT22;32452;51.382;-0.002;2024-03-06T16:45:03;11.50;93.50
46720;DHT22;32452;51.382;-0.002;2024-03-06T16:47:48;11.50;93.60
46720;DHT22;32452;51.382;-0.002;2024-03-06T16:50:37;11.40;93.40
46720;DHT22;32452;51.382;-0.002;2024-03-06T16:53:23;11.40;93.40
46720;DHT22;32452;51.382;-0.002;2024-03-06T16:56:08;11.40;93.30
46720;DHT22;32452;51.382;-0.002;2024-03-06T16:58:54;11.30;93.20
46720;DHT22;32452;51.382;-0.002;2024-03-06T17:01:40;11.30;93.20
46720;DHT22;32452;51.382;-0.002;2024-03-06T17:04:26;11.20;93.20
46720;DHT22;32452;51.382;-0.002;2024-03-06T17:07:12;11.20;93.40
46720;DHT22;32452;51.382;-0.002;2024-03-06T17:09:57;11.10;93.50
46720;DHT22;32452;51.382;-0.002;2024-03-06T17:12:43;11.10;93.70
46720;DHT22;32452;51.382;-0.002;2024-03-06T17:15:29;11.00;93.80
46720;DHT22;32452;51.382;-0.002;2024-03-06T17:18:16;11.00;94.40
46720;DHT22;32452;51.382;-0.002;2024-03-06T17:21:05;11.00;94.30
46720;DHT22;32452;51.382;-0.002;2024-03-06T17:23:51;11.00;94.50
46720;DHT22;32452;51.382;-0.002;2024-03-06T17:26:37;10.90;94.60
46720;DHT22;32452;51.382;-0.002;2024-03-06T17:29:24;10.80;94.80
46720;DHT22;32452;51.382;-0.002;2024-03-06T17:32:10;10.80;94.90
46720;DHT22;32452;51.382;-0.002;2024-03-06T17:34:55;10.70;95.00
46720;DHT22;32452;51.382;-0.002;2024-03-06T17:37:41;10.70;95.00
46720;DHT22;32452;51.382;-0.002;2024-03-06T17:40:27;10.70;95.10
46720;DHT22;32452;51.382;-0.002;2024-03-06T17:43:13;10.60;95.30
46720;DHT22;32452;51.382;-0.002;2024-03-06T17:45:59;10.60;95.40
46720;DHT22;32452;51.382;-0.002;2024-03-06T17:48:45;10.50;95.60